sensor_id;sensor_type;location;lat;lon;timestamp;P1;durP1;ratioP1;P2;durP2;ratioP2
47455;SDS011;33202;48.512;-2.780;2023-04-15T00:00:42;8.73;;;1.73;;
47455;SDS011;33202;48.512;-2.780;2023-04-15T00:03:08;7.07;;;1.80;;
47455;SDS011;33202;48.512;-2.780;2023-04-15T00:05:34;7.88;;;1.30;;
47455;SDS011;33202;48.512;-2.780;2023-04-15T00:08:00;9.32;;;1.63;;
47455;SDS011;33202;48.512;-2.780;2023-04-15T00:10:27;8.15;;;1.83;;
47455;SDS011;33202;48.512;-2.780;2023-04-15T00:12:53;7.22;;;2.03;;
47455;SDS011;33202;48.512;-2.780;2023-04-15T00:15:19;8.35;;;2.00;;
47455;SDS011;33202;48.512;-2.780;2023-04-15T00:17:45;10.32;;;1.70;;
47455;SDS011;33202;48.512;-2.780;2023-04-15T00:20:11;9.73;;;1.85;;
47455;SDS011;33202;48.512;-2.780;2023-04-15T00:22:37;7.30;;;1.77;;
47455;SDS011;33202;48.512;-2.780;2023-04-15T00:25:03;6.20;;;1.75;;
47455;SDS011;33202;48.512;-2.780;2023-04-15T00:27:29;6.80;;;1.45;;
47455;SDS011;33202;48.512;-2.780;2023-04-15T00:29:55;7.90;;;1.42;;
47455;SDS011;33202;48.512;-2.780;2023-04-15T00:32:22;13.38;;;2.20;;
47455;SDS011;33202;48.512;-2.780;2023-04-15T00:34:48;7.13;;;1.40;;
47455;SDS011;33202;48.512;-2.780;2023-04-15T00:37:14;6.73;;;1.57;;
47455;SDS011;33202;48.512;-2.780;2023-04-15T00:39:40;6.32;;;1.70;;
47455;SDS011;33202;48.512;-2.780;2023-04-15T00:42:06;6.65;;;1.63;;
47455;SDS011;33202;48.512;-2.780;2023-04-15T00:44:33;10.48;;;1.75;;
47455;SDS011;33202;48.512;-2.780;2023-04-15T00:46:59;8.27;;;1.55;;
47455;SDS011;33202;48.512;-2.780;2023-04-15T00:49:26;9.65;;;1.48;;
47455;SDS011;33202;48.512;-2.780;2023-04-15T00:51:53;5.78;;;1.55;;
47455;SDS011;33202;48.512;-2.780;2023-04-15T00:54:20;7.97;;;1.70;;
47455;SDS011;33202;48.512;-2.780;2023-04-15T00:56:46;5.63;;;1.33;;
47455;SDS011;33202;48.512;-2.780;2023-04-15T00:59:13;8.48;;;1.85;;
47455;SDS011;33202;48.512;-2.780;2023-04-15T01:01:39;8.52;;;1.98;;
47455;SDS011;33202;48.512;-2.780;2023-04-15T01:04:05;4.25;;;1.30;;
47455;SDS011;33202;48.512;-2.780;2023-04-15T01:06:32;7.75;;;1.38;;
47455;SDS011;33202;48.512;-2.780;2023-04-15T01:08:58;7.43;;;1.85;;
47455;SDS011;33202;48.512;-2.780;2023-04-15T01:11:25;4.35;;;1.20;;
47455;SDS011;33202;48.512;-2.780;2023-04-15T01:13:51;8.52;;;1.88;;
47455;SDS011;33202;48.512;-2.780;2023-04-15T01:16:18;8.95;;;1.85;;
47455;SDS011;33202;48.512;-2.780;2023-04-15T01:18:44;4.13;;;1.38;;
47455;SDS011;33202;48.512;-2.780;2023-04-15T01:21:10;10.55;;;2.30;;
47455;SDS011;33202;48.512;-2.780;2023-04-15T01:23:37;10.38;;;1.50;;
47455;SDS011;33202;48.512;-2.780;2023-04-15T01:26:04;7.18;;;1.58;;
47455;SDS011;33202;48.512;-2.780;2023-04-15T01:28:30;7.37;;;2.03;;
47455;SDS011;33202;48.512;-2.780;2023-04-15T01:31:12;13.33;;;1.70;;
47455;SDS011;33202;48.512;-2.780;2023-04-15T01:33:39;8.48;;;2.53;;
47455;SDS011;33202;48.512;-2.780;2023-04-15T01:36:06;7.85;;;2.08;;
47455;SDS011;33202;48.512;-2.780;2023-04-15T01:38:34;7.30;;;1.70;;
47455;SDS011;33202;48.512;-2.780;2023-04-15T01:41:00;4.60;;;1.50;;
47455;SDS011;33202;48.512;-2.780;2023-04-15T01:43:28;7.15;;;2.00;;
47455;SDS011;33202;48.512;-2.780;2023-04-15T01:45:54;10.05;;;1.83;;
47455;SDS011;33202;48.512;-2.780;2023-04-15T01:48:20;7.72;;;1.88;;
47455;SDS011;33202;48.512;-2.780;2023-04-15T01:50:47;6.07;;;1.92;;
47455;SDS011;33202;48.512;-2.780;2023-04-15T01:53:13;9.70;;;1.90;;
47455;SDS011;33202;48.512;-2.780;2023-04-15T01:55:39;5.93;;;1.73;;
47455;SDS011;33202;48.512;-2.780;2023-04-15T01:58:06;13.97;;;3.10;;
47455;SDS011;33202;48.512;-2.780;2023-04-15T02:00:32;7.43;;;1.75;;
47455;SDS011;33202;48.512;-2.780;2023-04-15T02:02:59;7.93;;;1.60;;
47455;SDS011;33202;48.512;-2.780;2023-04-15T02:05:25;6.47;;;1.60;;
47455;SDS011;33202;48.512;-2.780;2023-04-15T02:07:51;9.85;;;2.10;;
47455;SDS011;33202;48.512;-2.780;2023-04-15T02:10:17;6.60;;;1.70;;
47455;SDS011;33202;48.512;-2.780;2023-04-15T02:12:43;6.20;;;2.03;;
47455;SDS011;33202;48.512;-2.780;2023-04-15T02:15:09;7.50;;;1.73;;
47455;SDS011;33202;48.512;-2.780;2023-04-15T02:17:36;7.20;;;1.77;;
47455;SDS011;33202;48.512;-2.780;2023-04-15T02:20:02;7.30;;;2.05;;
47455;SDS011;33202;48.512;-2.780;2023-04-15T02:22:32;12.85;;;2.72;;
47455;SDS011;33202;48.512;-2.780;2023-04-15T02:24:58;7.10;;;2.38;;
47455;SDS011;33202;48.512;-2.780;2023-04-15T02:27:24;8.30;;;2.00;;
47455;SDS011;33202;48.512;-2.780;2023-04-15T02:29:52;8.02;;;2.33;;
47455;SDS011;33202;48.512;-2.780;2023-04-15T02:32:18;9.15;;;1.63;;
47455;SDS011;33202;48.512;-2.780;2023-04-15T02:34:44;6.00;;;1.70;;
47455;SDS011;33202;48.512;-2.780;2023-04-15T02:37:11;13.15;;;2.30;;
47455;SDS011;33202;48.512;-2.780;2023-04-15T02:39:37;11.60;;;2.22;;
47455;SDS011;33202;48.512;-2.780;2023-04-15T02:42:03;7.57;;;1.50;;
47455;SDS011;33202;48.512;-2.780;2023-04-15T02:44:30;8.38;;;2.03;;
47455;SDS011;33202;48.512;-2.780;2023-04-15T02:46:56;9.33;;;2.23;;
47455;SDS011;33202;48.512;-2.780;2023-04-15T02:49:23;11.80;;;2.58;;
47455;SDS011;33202;48.512;-2.780;2023-04-15T02:51:49;9.18;;;2.22;;
47455;SDS011;33202;48.512;-2.780;2023-04-15T02:54:16;10.18;;;1.63;;
47455;SDS011;33202;48.512;-2.780;2023-04-15T02:56:42;5.70;;;1.40;;
47455;SDS011;33202;48.512;-2.780;2023-04-15T02:59:08;6.43;;;1.60;;
47455;SDS011;33202;48.512;-2.780;2023-04-15T03:01:34;6.72;;;1.80;;
47455;SDS011;33202;48.512;-2.780;2023-04-15T03:04:00;11.50;;;2.30;;
47455;SDS011;33202;48.512;-2.780;2023-04-15T03:06:26;11.15;;;2.42;;
47455;SDS011;33202;48.512;-2.780;2023-04-15T03:08:52;5.82;;;1.70;;
47455;SDS011;33202;48.512;-2.780;2023-04-15T03:11:18;6.25;;;1.50;;
47455;SDS011;33202;48.512;-2.780;2023-04-15T03:13:45;11.73;;;2.47;;
47455;SDS011;33202;48.512;-2.780;2023-04-15T03:16:11;10.35;;;2.00;;
47455;SDS011;33202;48.512;-2.780;2023-04-15T03:18:37;10.63;;;1.80;;
47455;SDS011;33202;48.512;-2.780;2023-04-15T03:21:03;11.30;;;1.65;;
47455;SDS011;33202;48.512;-2.780;2023-04-15T03:23:30;7.57;;;1.60;;
47455;SDS011;33202;48.512;-2.780;2023-04-15T03:25:56;7.22;;;1.50;;
47455;SDS011;33202;48.512;-2.780;2023-04-15T03:28:23;11.63;;;1.70;;
47455;SDS011;33202;48.512;-2.780;2023-04-15T03:30:49;7.53;;;1.55;;
47455;SDS011;33202;48.512;-2.780;2023-04-15T03:33:15;9.55;;;1.52;;
47455;SDS011;33202;48.512;-2.780;2023-04-15T03:35:41;5.65;;;1.50;;
47455;SDS011;33202;48.512;-2.780;2023-04-15T03:38:07;14.50;;;2.63;;
47455;SDS011;33202;48.512;-2.780;2023-04-15T03:40:33;17.38;;;2.20;;
47455;SDS011;33202;48.512;-2.780;2023-04-15T03:42:59;8.35;;;2.22;;
47455;SDS011;33202;48.512;-2.780;2023-04-15T03:45:25;8.25;;;1.92;;
47455;SDS011;33202;48.512;-2.780;2023-04-15T03:47:51;10.00;;;1.67;;
47455;SDS011;33202;48.512;-2.780;2023-04-15T03:50:17;9.68;;;2.17;;
47455;SDS011;33202;48.512;-2.780;2023-04-15T03:52:43;9.77;;;1.90;;
47455;SDS011;33202;48.512;-2.780;2023-04-15T03:55:10;6.80;;;1.98;;
47455;SDS011;33202;48.512;-2.780;2023-04-15T03:57:36;11.85;;;2.78;;
47455;SDS011;33202;48.512;-2.780;2023-04-15T04:00:06;9.77;;;1.87;;
47455;SDS011;33202;48.512;-2.780;2023-04-15T04:02:36;12.73;;;2.00;;
47455;SDS011;33202;48.512;-2.780;2023-04-15T04:05:02;11.65;;;2.13;;
47455;SDS011;33202;48.512;-2.780;2023-04-15T04:07:28;10.88;;;2.28;;
47455;SDS011;33202;48.512;-2.780;2023-04-15T04:09:56;10.85;;;2.20;;
47455;SDS011;33202;48.512;-2.780;2023-04-15T04:12:22;8.07;;;1.83;;
47455;SDS011;33202;48.512;-2.780;2023-04-15T04:14:48;9.38;;;1.65;;
47455;SDS011;33202;48.512;-2.780;2023-04-15T04:17:14;9.75;;;1.90;;
47455;SDS011;33202;48.512;-2.780;2023-04-15T04:19:40;9.05;;;2.05;;
47455;SDS011;33202;48.512;-2.780;2023-04-15T04:22:06;13.75;;;2.65;;
47455;SDS011;33202;48.512;-2.780;2023-04-15T04:24:32;9.80;;;1.73;;
47455;SDS011;33202;48.512;-2.780;2023-04-15T04:26:58;10.23;;;1.75;;
47455;SDS011;33202;48.512;-2.780;2023-04-15T04:29:24;12.40;;;2.13;;
47455;SDS011;33202;48.512;-2.780;2023-04-15T04:31:51;11.68;;;2.20;;
47455;SDS011;33202;48.512;-2.780;2023-04-15T04:34:16;11.45;;;2.28;;
47455;SDS011;33202;48.512;-2.780;2023-04-15T04:36:42;9.35;;;1.92;;
47455;SDS011;33202;48.512;-2.780;2023-04-15T04:39:08;8.65;;;1.90;;
47455;SDS011;33202;48.512;-2.780;2023-04-15T04:41:34;13.23;;;2.78;;
47455;SDS011;33202;48.512;-2.780;2023-04-15T04:44:00;12.02;;;2.45;;
47455;SDS011;33202;48.512;-2.780;2023-04-15T04:46:27;13.83;;;1.97;;
47455;SDS011;33202;48.512;-2.780;2023-04-15T04:48:53;14.02;;;2.22;;
47455;SDS011;33202;48.512;-2.780;2023-04-15T04:51:19;16.95;;;2.90;;
47455;SDS011;33202;48.512;-2.780;2023-04-15T04:53:45;23.65;;;3.65;;
47455;SDS011;33202;48.512;-2.780;2023-04-15T04:56:11;9.93;;;1.95;;
47455;SDS011;33202;48.512;-2.780;2023-04-15T04:58:37;15.93;;;2.60;;
47455;SDS011;33202;48.512;-2.780;2023-04-15T05:01:03;12.57;;;2.30;;
47455;SDS011;33202;48.512;-2.780;2023-04-15T05:03:29;12.43;;;2.55;;
47455;SDS011;33202;48.512;-2.780;2023-04-15T05:05:55;12.60;;;2.40;;
47455;SDS011;33202;48.512;-2.780;2023-04-15T05:08:22;18.98;;;2.33;;
47455;SDS011;33202;48.512;-2.780;2023-04-15T05:10:48;15.27;;;3.38;;
47455;SDS011;33202;48.512;-2.780;2023-04-15T05:13:14;11.68;;;2.25;;
47455;SDS011;33202;48.512;-2.780;2023-04-15T05:15:39;7.20;;;1.73;;
47455;SDS011;33202;48.512;-2.780;2023-04-15T05:18:07;12.88;;;2.10;;
47455;SDS011;33202;48.512;-2.780;2023-04-15T05:20:33;15.75;;;3.03;;
47455;SDS011;33202;48.512;-2.780;2023-04-15T05:22:59;12.40;;;2.10;;
47455;SDS011;33202;48.512;-2.780;2023-04-15T05:25:25;16.98;;;2.60;;
47455;SDS011;33202;48.512;-2.780;2023-04-15T05:27:51;30.13;;;2.78;;
47455;SDS011;33202;48.512;-2.780;2023-04-15T05:30:17;10.25;;;1.85;;
47455;SDS011;33202;48.512;-2.780;2023-04-15T05:32:43;14.38;;;2.30;;
47455;SDS011;33202;48.512;-2.780;2023-04-15T05:35:09;14.75;;;2.83;;
47455;SDS011;33202;48.512;-2.780;2023-04-15T05:37:35;15.88;;;2.47;;
47455;SDS011;33202;48.512;-2.780;2023-04-15T05:40:01;12.02;;;2.50;;
47455;SDS011;33202;48.512;-2.780;2023-04-15T05:42:28;12.57;;;2.45;;
47455;SDS011;33202;48.512;-2.780;2023-04-15T05:44:54;11.57;;;2.42;;
47455;SDS011;33202;48.512;-2.780;2023-04-15T05:47:21;14.52;;;2.28;;
47455;SDS011;33202;48.512;-2.780;2023-04-15T05:49:47;12.05;;;2.05;;
47455;SDS011;33202;48.512;-2.780;2023-04-15T05:52:13;13.75;;;2.88;;
47455;SDS011;33202;48.512;-2.780;2023-04-15T05:54:39;14.68;;;2.78;;
47455;SDS011;33202;48.512;-2.780;2023-04-15T05:57:05;11.77;;;2.33;;
47455;SDS011;33202;48.512;-2.780;2023-04-15T05:59:32;10.50;;;2.03;;
47455;SDS011;33202;48.512;-2.780;2023-04-15T06:01:58;15.52;;;2.38;;
47455;SDS011;33202;48.512;-2.780;2023-04-15T06:04:24;12.88;;;1.88;;
47455;SDS011;33202;48.512;-2.780;2023-04-15T06:06:50;10.52;;;2.55;;
47455;SDS011;33202;48.512;-2.780;2023-04-15T06:09:16;15.95;;;2.55;;
47455;SDS011;33202;48.512;-2.780;2023-04-15T06:11:42;14.43;;;2.58;;
47455;SDS011;33202;48.512;-2.780;2023-04-15T06:14:08;16.55;;;3.30;;
47455;SDS011;33202;48.512;-2.780;2023-04-15T06:16:34;19.65;;;3.65;;
47455;SDS011;33202;48.512;-2.780;2023-04-15T06:19:00;10.15;;;2.08;;
47455;SDS011;33202;48.512;-2.780;2023-04-15T06:21:26;9.90;;;2.13;;
47455;SDS011;33202;48.512;-2.780;2023-04-15T06:23:52;15.75;;;2.40;;
47455;SDS011;33202;48.512;-2.780;2023-04-15T06:26:18;14.27;;;2.13;;
47455;SDS011;33202;48.512;-2.780;2023-04-15T06:28:44;13.50;;;3.28;;
47455;SDS011;33202;48.512;-2.780;2023-04-15T06:31:10;14.02;;;3.10;;
47455;SDS011;33202;48.512;-2.780;2023-04-15T06:33:36;17.52;;;2.42;;
47455;SDS011;33202;48.512;-2.780;2023-04-15T06:36:03;15.27;;;2.15;;
47455;SDS011;33202;48.512;-2.780;2023-04-15T06:38:29;14.43;;;2.15;;
47455;SDS011;33202;48.512;-2.780;2023-04-15T06:40:55;16.48;;;3.38;;
47455;SDS011;33202;48.512;-2.780;2023-04-15T06:43:21;14.90;;;2.30;;
47455;SDS011;33202;48.512;-2.780;2023-04-15T06:45:48;18.92;;;2.95;;
47455;SDS011;33202;48.512;-2.780;2023-04-15T06:48:14;14.93;;;2.53;;
47455;SDS011;33202;48.512;-2.780;2023-04-15T06:50:41;13.43;;;2.58;;
47455;SDS011;33202;48.512;-2.780;2023-04-15T06:53:07;19.13;;;3.28;;
47455;SDS011;33202;48.512;-2.780;2023-04-15T06:55:33;11.90;;;2.47;;
47455;SDS011;33202;48.512;-2.780;2023-04-15T06:57:59;12.52;;;2.30;;
47455;SDS011;33202;48.512;-2.780;2023-04-15T07:00:26;17.50;;;3.17;;
47455;SDS011;33202;48.512;-2.780;2023-04-15T07:02:52;11.07;;;2.60;;
47455;SDS011;33202;48.512;-2.780;2023-04-15T07:05:19;17.88;;;2.75;;
47455;SDS011;33202;48.512;-2.780;2023-04-15T07:07:45;15.65;;;2.60;;
47455;SDS011;33202;48.512;-2.780;2023-04-15T07:10:11;15.32;;;3.10;;
47455;SDS011;33202;48.512;-2.780;2023-04-15T07:12:38;15.70;;;3.00;;
47455;SDS011;33202;48.512;-2.780;2023-04-15T07:15:05;13.18;;;2.22;;
47455;SDS011;33202;48.512;-2.780;2023-04-15T07:17:31;18.83;;;2.83;;
47455;SDS011;33202;48.512;-2.780;2023-04-15T07:19:58;16.02;;;2.67;;
47455;SDS011;33202;48.512;-2.780;2023-04-15T07:22:24;13.32;;;2.28;;
47455;SDS011;33202;48.512;-2.780;2023-04-15T07:24:50;16.58;;;2.80;;
47455;SDS011;33202;48.512;-2.780;2023-04-15T07:27:16;19.80;;;3.05;;
47455;SDS011;33202;48.512;-2.780;2023-04-15T07:29:42;17.42;;;2.70;;
47455;SDS011;33202;48.512;-2.780;2023-04-15T07:32:08;12.65;;;2.92;;
47455;SDS011;33202;48.512;-2.780;2023-04-15T07:34:34;16.65;;;3.10;;
47455;SDS011;33202;48.512;-2.780;2023-04-15T07:37:01;12.80;;;2.05;;
47455;SDS011;33202;48.512;-2.780;2023-04-15T07:39:27;10.45;;;2.33;;
47455;SDS011;33202;48.512;-2.780;2023-04-15T07:41:53;10.40;;;1.95;;
47455;SDS011;33202;48.512;-2.780;2023-04-15T07:44:20;17.17;;;2.88;;
47455;SDS011;33202;48.512;-2.780;2023-04-15T07:46:46;12.93;;;2.78;;
47455;SDS011;33202;48.512;-2.780;2023-04-15T07:49:12;11.13;;;2.28;;
47455;SDS011;33202;48.512;-2.780;2023-04-15T07:51:38;12.20;;;3.03;;
47455;SDS011;33202;48.512;-2.780;2023-04-15T07:54:04;12.43;;;2.20;;
47455;SDS011;33202;48.512;-2.780;2023-04-15T07:56:30;11.15;;;1.80;;
47455;SDS011;33202;48.512;-2.780;2023-04-15T07:58:56;8.48;;;1.70;;
47455;SDS011;33202;48.512;-2.780;2023-04-15T08:01:22;11.90;;;2.15;;
47455;SDS011;33202;48.512;-2.780;2023-04-15T08:03:48;12.15;;;2.40;;
47455;SDS011;33202;48.512;-2.780;2023-04-15T08:06:14;13.07;;;1.83;;
47455;SDS011;33202;48.512;-2.780;2023-04-15T08:08:40;12.00;;;2.00;;
47455;SDS011;33202;48.512;-2.780;2023-04-15T08:11:07;12.73;;;2.35;;
47455;SDS011;33202;48.512;-2.780;2023-04-15T08:13:33;9.17;;;1.40;;
47455;SDS011;33202;48.512;-2.780;2023-04-15T08:16:13;7.28;;;1.63;;
47455;SDS011;33202;48.512;-2.780;2023-04-15T08:18:40;13.18;;;2.30;;
47455;SDS011;33202;48.512;-2.780;2023-04-15T08:21:06;13.55;;;2.58;;
47455;SDS011;33202;48.512;-2.780;2023-04-15T08:23:32;11.60;;;2.05;;
47455;SDS011;33202;48.512;-2.780;2023-04-15T08:25:58;5.80;;;1.60;;
47455;SDS011;33202;48.512;-2.780;2023-04-15T08:28:24;13.02;;;2.03;;
47455;SDS011;33202;48.512;-2.780;2023-04-15T08:30:54;7.53;;;1.85;;
47455;SDS011;33202;48.512;-2.780;2023-04-15T08:33:20;6.82;;;1.80;;
47455;SDS011;33202;48.512;-2.780;2023-04-15T08:35:47;6.72;;;1.38;;
47455;SDS011;33202;48.512;-2.780;2023-04-15T08:38:13;6.40;;;1.23;;
47455;SDS011;33202;48.512;-2.780;2023-04-15T08:40:40;10.02;;;1.90;;
47455;SDS011;33202;48.512;-2.780;2023-04-15T08:43:06;4.00;;;1.40;;
47455;SDS011;33202;48.512;-2.780;2023-04-15T08:45:34;5.32;;;1.20;;
47455;SDS011;33202;48.512;-2.780;2023-04-15T08:48:00;6.95;;;1.00;;
47455;SDS011;33202;48.512;-2.780;2023-04-15T08:50:30;7.07;;;1.60;;
47455;SDS011;33202;48.512;-2.780;2023-04-15T08:52:57;5.47;;;1.13;;
47455;SDS011;33202;48.512;-2.780;2023-04-15T08:57:50;4.45;;;1.00;;
47455;SDS011;33202;48.512;-2.780;2023-04-15T09:00:16;6.25;;;1.35;;
47455;SDS011;33202;48.512;-2.780;2023-04-15T09:02:42;6.72;;;1.20;;
47455;SDS011;33202;48.512;-2.780;2023-04-15T09:05:08;5.40;;;0.90;;
47455;SDS011;33202;48.512;-2.780;2023-04-15T09:07:34;4.03;;;0.77;;
47455;SDS011;33202;48.512;-2.780;2023-04-15T09:10:02;5.15;;;0.95;;
47455;SDS011;33202;48.512;-2.780;2023-04-15T09:12:28;6.43;;;1.40;;
47455;SDS011;33202;48.512;-2.780;2023-04-15T09:14:54;3.08;;;0.80;;
47455;SDS011;33202;48.512;-2.780;2023-04-15T09:17:20;5.63;;;0.80;;
47455;SDS011;33202;48.512;-2.780;2023-04-15T09:19:46;5.18;;;0.85;;
47455;SDS011;33202;48.512;-2.780;2023-04-15T09:22:12;3.17;;;0.88;;
47455;SDS011;33202;48.512;-2.780;2023-04-15T09:24:39;5.15;;;1.20;;
47455;SDS011;33202;48.512;-2.780;2023-04-15T09:29:32;6.47;;;1.08;;
47455;SDS011;33202;48.512;-2.780;2023-04-15T09:32:11;3.45;;;0.93;;
47455;SDS011;33202;48.512;-2.780;2023-04-15T09:34:37;3.22;;;0.88;;
47455;SDS011;33202;48.512;-2.780;2023-04-15T09:37:03;4.03;;;1.00;;
47455;SDS011;33202;48.512;-2.780;2023-04-15T09:39:48;4.20;;;0.80;;
47455;SDS011;33202;48.512;-2.780;2023-04-15T09:42:14;8.60;;;1.10;;
47455;SDS011;33202;48.512;-2.780;2023-04-15T09:44:47;8.13;;;1.13;;
47455;SDS011;33202;48.512;-2.780;2023-04-15T09:47:26;3.20;;;1.65;;
47455;SDS011;33202;48.512;-2.780;2023-04-15T09:49:56;2.58;;;0.70;;
47455;SDS011;33202;48.512;-2.780;2023-04-15T09:52:22;5.95;;;0.88;;
47455;SDS011;33202;48.512;-2.780;2023-04-15T09:54:49;4.05;;;0.82;;
47455;SDS011;33202;48.512;-2.780;2023-04-15T09:57:17;6.72;;;0.80;;
47455;SDS011;33202;48.512;-2.780;2023-04-15T09:59:43;2.88;;;0.80;;
47455;SDS011;33202;48.512;-2.780;2023-04-15T10:02:10;4.07;;;0.70;;
47455;SDS011;33202;48.512;-2.780;2023-04-15T10:04:38;5.70;;;1.17;;
47455;SDS011;33202;48.512;-2.780;2023-04-15T10:07:05;7.45;;;0.73;;
47455;SDS011;33202;48.512;-2.780;2023-04-15T10:09:34;5.05;;;1.00;;
47455;SDS011;33202;48.512;-2.780;2023-04-15T10:14:27;7.30;;;1.38;;
47455;SDS011;33202;48.512;-2.780;2023-04-15T10:16:53;3.47;;;0.98;;
47455;SDS011;33202;48.512;-2.780;2023-04-15T10:19:21;6.55;;;1.30;;
47455;SDS011;33202;48.512;-2.780;2023-04-15T10:21:49;7.53;;;1.30;;
47455;SDS011;33202;48.512;-2.780;2023-04-15T10:24:16;5.50;;;0.98;;
47455;SDS011;33202;48.512;-2.780;2023-04-15T10:26:42;13.60;;;1.38;;
47455;SDS011;33202;48.512;-2.780;2023-04-15T10:29:09;5.55;;;1.92;;
47455;SDS011;33202;48.512;-2.780;2023-04-15T10:31:35;8.00;;;1.33;;
47455;SDS011;33202;48.512;-2.780;2023-04-15T10:34:02;5.10;;;1.17;;
47455;SDS011;33202;48.512;-2.780;2023-04-15T10:36:30;5.65;;;1.00;;
47455;SDS011;33202;48.512;-2.780;2023-04-15T10:38:57;1.55;;;0.55;;
47455;SDS011;33202;48.512;-2.780;2023-04-15T10:41:23;3.97;;;0.90;;
47455;SDS011;33202;48.512;-2.780;2023-04-15T10:43:54;3.60;;;0.80;;
47455;SDS011;33202;48.512;-2.780;2023-04-15T10:46:43;3.40;;;0.95;;
47455;SDS011;33202;48.512;-2.780;2023-04-15T10:49:08;7.90;;;0.82;;
47455;SDS011;33202;48.512;-2.780;2023-04-15T10:51:36;4.63;;;0.77;;
47455;SDS011;33202;48.512;-2.780;2023-04-15T10:54:06;3.17;;;0.80;;
47455;SDS011;33202;48.512;-2.780;2023-04-15T10:56:33;5.22;;;1.10;;
47455;SDS011;33202;48.512;-2.780;2023-04-15T10:59:00;4.35;;;1.00;;
47455;SDS011;33202;48.512;-2.780;2023-04-15T11:04:10;5.00;;;0.93;;
47455;SDS011;33202;48.512;-2.780;2023-04-15T11:06:43;5.00;;;0.90;;
47455;SDS011;33202;48.512;-2.780;2023-04-15T11:09:11;6.03;;;1.33;;
47455;SDS011;33202;48.512;-2.780;2023-04-15T11:12:08;3.92;;;1.52;;
47455;SDS011;33202;48.512;-2.780;2023-04-15T11:14:38;4.30;;;0.98;;
47455;SDS011;33202;48.512;-2.780;2023-04-15T11:17:05;5.70;;;0.98;;
47455;SDS011;33202;48.512;-2.780;2023-04-15T11:19:35;3.15;;;0.93;;
47455;SDS011;33202;48.512;-2.780;2023-04-15T11:22:08;6.00;;;1.70;;
47455;SDS011;33202;48.512;-2.780;2023-04-15T11:24:34;4.72;;;0.95;;
47455;SDS011;33202;48.512;-2.780;2023-04-15T11:27:00;10.70;;;1.50;;
47455;SDS011;33202;48.512;-2.780;2023-04-15T11:29:33;3.47;;;1.02;;
47455;SDS011;33202;48.512;-2.780;2023-04-15T11:32:08;5.97;;;1.40;;
47455;SDS011;33202;48.512;-2.780;2023-04-15T11:34:34;5.47;;;1.17;;
47455;SDS011;33202;48.512;-2.780;2023-04-15T11:37:04;7.13;;;1.00;;
47455;SDS011;33202;48.512;-2.780;2023-04-15T11:39:30;5.63;;;1.45;;
47455;SDS011;33202;48.512;-2.780;2023-04-15T11:41:56;5.85;;;1.80;;
47455;SDS011;33202;48.512;-2.780;2023-04-15T11:44:22;5.18;;;0.93;;
47455;SDS011;33202;48.512;-2.780;2023-04-15T11:46:48;6.30;;;0.85;;
47455;SDS011;33202;48.512;-2.780;2023-04-15T11:49:27;4.78;;;0.82;;
47455;SDS011;33202;48.512;-2.780;2023-04-15T11:51:54;7.00;;;1.30;;
47455;SDS011;33202;48.512;-2.780;2023-04-15T11:54:20;4.60;;;0.90;;
47455;SDS011;33202;48.512;-2.780;2023-04-15T11:56:50;8.30;;;1.30;;
47455;SDS011;33202;48.512;-2.780;2023-04-15T11:59:16;5.00;;;0.88;;
47455;SDS011;33202;48.512;-2.780;2023-04-15T12:01:42;8.48;;;1.17;;
47455;SDS011;33202;48.512;-2.780;2023-04-15T12:04:17;5.90;;;1.00;;
47455;SDS011;33202;48.512;-2.780;2023-04-15T12:06:46;6.53;;;1.00;;
47455;SDS011;33202;48.512;-2.780;2023-04-15T12:09:12;6.63;;;1.05;;
47455;SDS011;33202;48.512;-2.780;2023-04-15T12:11:40;5.60;;;1.20;;
47455;SDS011;33202;48.512;-2.780;2023-04-15T12:16:35;6.53;;;1.08;;
47455;SDS011;33202;48.512;-2.780;2023-04-15T12:19:44;4.88;;;0.82;;
47455;SDS011;33202;48.512;-2.780;2023-04-15T12:21:53;5.35;;;1.00;;
47455;SDS011;33202;48.512;-2.780;2023-04-15T12:24:22;3.20;;;0.82;;
47455;SDS011;33202;48.512;-2.780;2023-04-15T12:26:49;4.40;;;0.80;;
47455;SDS011;33202;48.512;-2.780;2023-04-15T12:29:17;2.45;;;0.90;;
47455;SDS011;33202;48.512;-2.780;2023-04-15T12:31:49;3.65;;;0.95;;
47455;SDS011;33202;48.512;-2.780;2023-04-15T12:34:16;9.93;;;1.42;;
47455;SDS011;33202;48.512;-2.780;2023-04-15T12:36:42;3.60;;;0.90;;
47455;SDS011;33202;48.512;-2.780;2023-04-15T12:39:09;4.75;;;0.90;;
47455;SDS011;33202;48.512;-2.780;2023-04-15T12:41:35;3.58;;;0.80;;
47455;SDS011;33202;48.512;-2.780;2023-04-15T12:44:01;2.88;;;0.70;;
47455;SDS011;33202;48.512;-2.780;2023-04-15T12:46:27;2.75;;;1.00;;
47455;SDS011;33202;48.512;-2.780;2023-04-15T12:48:54;3.70;;;0.80;;
47455;SDS011;33202;48.512;-2.780;2023-04-15T12:51:20;2.90;;;0.88;;
47455;SDS011;33202;48.512;-2.780;2023-04-15T12:53:46;5.35;;;0.90;;
47455;SDS011;33202;48.512;-2.780;2023-04-15T12:56:13;4.03;;;1.00;;
47455;SDS011;33202;48.512;-2.780;2023-04-15T12:58:40;3.85;;;1.10;;
47455;SDS011;33202;48.512;-2.780;2023-04-15T13:01:07;4.22;;;0.70;;
47455;SDS011;33202;48.512;-2.780;2023-04-15T13:03:34;2.53;;;0.65;;
47455;SDS011;33202;48.512;-2.780;2023-04-15T13:06:00;5.78;;;1.08;;
47455;SDS011;33202;48.512;-2.780;2023-04-15T13:08:28;2.40;;;0.68;;
47455;SDS011;33202;48.512;-2.780;2023-04-15T13:10:54;3.90;;;0.80;;
47455;SDS011;33202;48.512;-2.780;2023-04-15T13:13:20;3.42;;;0.70;;
47455;SDS011;33202;48.512;-2.780;2023-04-15T13:15:46;5.18;;;1.23;;
47455;SDS011;33202;48.512;-2.780;2023-04-15T13:18:12;6.32;;;1.13;;
47455;SDS011;33202;48.512;-2.780;2023-04-15T13:20:38;4.68;;;0.93;;
47455;SDS011;33202;48.512;-2.780;2023-04-15T13:23:05;3.37;;;0.50;;
47455;SDS011;33202;48.512;-2.780;2023-04-15T13:25:31;2.42;;;0.60;;
47455;SDS011;33202;48.512;-2.780;2023-04-15T13:27:57;4.93;;;0.80;;
47455;SDS011;33202;48.512;-2.780;2023-04-15T13:30:25;5.13;;;0.90;;
47455;SDS011;33202;48.512;-2.780;2023-04-15T13:32:51;2.28;;;0.80;;
47455;SDS011;33202;48.512;-2.780;2023-04-15T13:35:18;6.85;;;1.00;;
47455;SDS011;33202;48.512;-2.780;2023-04-15T13:37:44;3.92;;;0.93;;
47455;SDS011;33202;48.512;-2.780;2023-04-15T13:40:10;6.65;;;1.00;;
47455;SDS011;33202;48.512;-2.780;2023-04-15T13:42:36;1.63;;;0.50;;
47455;SDS011;33202;48.512;-2.780;2023-04-15T13:45:02;5.60;;;0.93;;
47455;SDS011;33202;48.512;-2.780;2023-04-15T13:47:29;5.32;;;1.35;;
47455;SDS011;33202;48.512;-2.780;2023-04-15T13:49:55;6.57;;;0.85;;
47455;SDS011;33202;48.512;-2.780;2023-04-15T13:52:21;5.40;;;0.98;;
47455;SDS011;33202;48.512;-2.780;2023-04-15T13:54:47;2.40;;;0.88;;
47455;SDS011;33202;48.512;-2.780;2023-04-15T13:57:13;7.35;;;1.17;;
47455;SDS011;33202;48.512;-2.780;2023-04-15T13:59:39;5.53;;;0.88;;
47455;SDS011;33202;48.512;-2.780;2023-04-15T14:02:06;3.60;;;0.73;;
47455;SDS011;33202;48.512;-2.780;2023-04-15T14:04:31;2.92;;;0.80;;
47455;SDS011;33202;48.512;-2.780;2023-04-15T14:06:58;4.30;;;0.82;;
47455;SDS011;33202;48.512;-2.780;2023-04-15T14:09:24;3.70;;;1.00;;
47455;SDS011;33202;48.512;-2.780;2023-04-15T14:11:50;5.45;;;1.15;;
47455;SDS011;33202;48.512;-2.780;2023-04-15T14:14:16;6.28;;;1.50;;
47455;SDS011;33202;48.512;-2.780;2023-04-15T14:16:42;6.28;;;1.05;;
47455;SDS011;33202;48.512;-2.780;2023-04-15T14:19:08;4.55;;;1.10;;
47455;SDS011;33202;48.512;-2.780;2023-04-15T14:21:34;4.65;;;1.00;;
47455;SDS011;33202;48.512;-2.780;2023-04-15T14:24:00;4.70;;;1.25;;
47455;SDS011;33202;48.512;-2.780;2023-04-15T14:26:26;5.05;;;1.05;;
47455;SDS011;33202;48.512;-2.780;2023-04-15T14:28:52;9.45;;;1.33;;
47455;SDS011;33202;48.512;-2.780;2023-04-15T14:31:18;5.10;;;1.30;;
47455;SDS011;33202;48.512;-2.780;2023-04-15T14:33:44;5.30;;;0.90;;
47455;SDS011;33202;48.512;-2.780;2023-04-15T14:36:10;9.20;;;1.10;;
47455;SDS011;33202;48.512;-2.780;2023-04-15T14:38:36;3.78;;;1.05;;
47455;SDS011;33202;48.512;-2.780;2023-04-15T14:41:04;5.80;;;1.27;;